Time;durP1;ratioP1;P1;durP2;ratioP2;P2;SDS_P1;SDS_P2;PMS_P1;PMS_P2;Temp;Humidity;BMP_temperature;BMP_pressure;BME280_temperature;BME280_humidity;BME280_pressure;Samples;Min_cycle;Max_cycle;Signal;HPM_P1;HPM_P2
2023/03/12 00:00:24;;;;;;;0.47;0.47;;;;;;;3.83;60.44;100629.97;5140227;28;20039;-81
2023/03/12 00:02:55;;;;;;;0.65;0.65;;;;;;;3.84;60.69;100634.28;5131620;28;20724;-81
2023/03/12 00:05:26;;;;;;;0.38;0.38;;;;;;;3.82;60.74;100625.63;5155804;28;20583;-81
2023/03/12 00:07:58;;;;;;;1.35;1.15;;;;;;;3.85;61.05;100623.00;5128208;28;20148;-81
2023/03/12 00:10:29;;;;;;;0.30;0.30;;;;;;;3.82;60.91;100612.66;5141668;28;20051;-80
2023/03/12 00:13:00;;;;;;;0.40;0.40;;;;;;;3.83;60.74;100615.22;5133014;28;20040;-80
2023/03/12 00:15:30;;;;;;;0.60;0.60;;;;;;;3.85;60.27;100613.50;5139795;28;20584;-81
2023/03/12 00:18:01;;;;;;;1.05;0.93;;;;;;;3.83;60.33;100614.38;5143521;28;20050;-81
2023/03/12 00:20:31;;;;;;;3.53;1.88;;;;;;;3.83;60.06;100619.56;5145019;28;20119;-79
2023/03/12 00:23:02;;;;;;;0.50;0.50;;;;;;;3.81;60.87;100616.09;5131035;28;20034;-82
2023/03/12 00:25:32;;;;;;;2.40;1.15;;;;;;;3.75;59.87;100612.66;5164366;28;20201;-82
2023/03/12 00:28:03;;;;;;;0.32;0.32;;;;;;;3.81;60.52;100611.75;5160292;28;20037;-82
2023/03/12 00:30:34;;;;;;;0.30;0.30;;;;;;;3.85;60.97;100612.63;5140774;28;20831;-80
2023/03/12 00:33:04;;;;;;;1.08;1.08;;;;;;;3.86;60.72;100616.94;5151088;28;20812;-81
2023/03/12 00:35:37;;;;;;;0.40;0.40;;;;;;;3.86;60.89;100616.94;5157313;28;20054;-81
2023/03/12 00:38:07;;;;;;;0.40;0.40;;;;;;;3.86;60.48;100610.06;5148823;28;20038;-81
2023/03/12 00:40:38;;;;;;;1.55;1.45;;;;;;;3.89;60.94;100606.59;5158885;28;20034;-81
2023/03/12 00:43:08;;;;;;;0.40;0.40;;;;;;;3.89;60.69;100598.78;5161010;28;20317;-81
2023/03/12 00:45:39;;;;;;;0.35;0.35;;;;;;;3.89;60.33;100598.78;5146328;28;20042;-81
2023/03/12 00:48:09;;;;;;;0.60;0.60;;;;;;;3.90;60.76;100592.75;5141661;28;20031;-81
2023/03/12 00:50:40;;;;;;;0.50;0.50;;;;;;;3.88;60.32;100591.88;5162275;28;20125;-81
2023/03/12 00:53:10;;;;;;;0.80;0.80;;;;;;;3.95;60.75;100593.59;5141808;28;20022;-81
2023/03/12 00:55:41;;;;;;;0.40;0.40;;;;;;;3.94;61.28;100592.72;5144796;28;20054;-81
2023/03/12 00:58:11;;;;;;;0.68;0.68;;;;;;;3.87;60.79;100590.13;5126448;28;20033;-80
2023/03/12 01:00:42;;;;;;;0.50;0.50;;;;;;;3.90;60.63;100587.53;5151945;28;20035;-81
2023/03/12 01:03:12;;;;;;;0.40;0.40;;;;;;;3.87;61.32;100588.41;5132588;28;20034;-81
2023/03/12 01:05:43;;;;;;;0.30;0.30;;;;;;;3.95;60.93;100583.19;5127245;28;20766;-80
2023/03/12 01:08:13;;;;;;;10.15;1.48;;;;;;;3.93;60.80;100587.53;5145118;28;20027;-81
2023/03/12 01:10:44;;;;;;;0.77;0.77;;;;;;;3.97;59.97;100583.22;5141244;28;20047;-81
2023/03/12 01:13:15;;;;;;;0.40;0.40;;;;;;;3.94;60.97;100578.88;5143830;28;20404;-82
2023/03/12 01:15:45;;;;;;;0.30;0.30;;;;;;;3.92;60.59;100570.25;5144416;28;20035;-81
2023/03/12 01:18:16;;;;;;;0.40;0.40;;;;;;;3.94;60.63;100564.19;5160359;28;20061;-80
2023/03/12 01:20:46;;;;;;;0.30;0.30;;;;;;;3.92;60.54;100572.84;5144629;28;20403;-80
2023/03/12 01:23:17;;;;;;;0.30;0.30;;;;;;;3.94;60.20;100565.88;5148372;28;20577;-80
2023/03/12 01:25:48;;;;;;;0.32;0.32;;;;;;;3.92;60.16;100557.28;5133150;28;20687;-82
2023/03/12 01:28:18;;;;;;;1.15;1.05;;;;;;;3.88;60.69;100559.00;5122596;28;20122;-82
2023/03/12 01:30:49;;;;;;;0.50;0.50;;;;;;;3.94;60.95;100558.09;5151392;28;20125;-81
2023/03/12 01:33:21;;;;;;;2.25;2.15;;;;;;;3.96;60.54;100556.38;5147939;28;20035;-81
2023/03/12 01:35:52;;;;;;;0.73;0.65;;;;;;;3.92;60.29;100562.47;5143915;28;20560;-81
2023/03/12 01:38:22;;;;;;;0.40;0.40;;;;;;;3.93;60.90;100553.78;5163188;28;20031;-82
2023/03/12 01:40:52;;;;;;;0.40;0.40;;;;;;;3.94;60.89;100532.16;5147981;28;20049;-81
2023/03/12 01:43:35;;;;;;;0.90;0.90;;;;;;;3.90;60.15;100533.03;5132568;28;20062;-80
2023/03/12 01:46:26;;;;;;;0.87;0.87;;;;;;;3.95;61.04;100531.28;5164297;28;20740;-80
2023/03/12 01:49:02;;;;;;;0.65;0.65;;;;;;;3.94;60.62;100529.53;5148516;28;20030;-80
2023/03/12 01:51:39;;;;;;;0.80;0.80;;;;;;;3.98;60.53;100526.09;5128846;28;20065;-82
2023/03/12 01:54:18;;;;;;;0.30;0.30;;;;;;;3.96;60.67;100522.63;5123472;28;20035;-81
2023/03/12 01:56:49;;;;;;;0.40;0.40;;;;;;;3.94;60.68;100513.97;5161642;28;20106;-81
2023/03/12 01:59:40;;;;;;;0.30;0.30;;;;;;;3.98;60.58;100523.50;5144468;28;20173;-81
2023/03/12 02:02:11;;;;;;;0.60;0.60;;;;;;;3.99;60.69;100516.56;5142352;28;20046;-80
2023/03/12 02:04:44;;;;;;;0.45;0.45;;;;;;;3.95;60.26;100510.50;5131114;28;20030;-81
2023/03/12 02:07:15;;;;;;;0.50;0.50;;;;;;;3.90;60.68;100514.88;5125728;28;20147;-81
2023/03/12 02:09:48;;;;;;;0.60;0.60;;;;;;;3.98;61.27;100514.81;5126168;28;20065;-81
2023/03/12 02:12:18;;;;;;;0.40;0.40;;;;;;;3.96;60.85;100512.25;5150631;28;20033;-81
2023/03/12 02:14:49;;;;;;;0.32;0.32;;;;;;;3.98;60.86;100505.31;5152689;28;20074;-81
2023/03/12 02:17:19;;;;;;;0.30;0.30;;;;;;;3.98;60.37;100505.31;5157339;28;20023;-80
2023/03/12 02:20:09;;;;;;;0.30;0.30;;;;;;;3.99;60.90;100507.06;5129502;28;20169;-81
2023/03/12 02:22:43;;;;;;;1.15;1.05;;;;;;;3.95;60.56;100507.91;5136984;28;20035;-80
2023/03/12 02:25:29;;;;;;;0.40;0.40;;;;;;;3.98;61.40;100500.13;5152406;28;20044;-80
2023/03/12 02:28:03;;;;;;;0.40;0.40;;;;;;;3.98;60.51;100501.84;5162227;28;20246;-80
2023/03/12 02:30:35;;;;;;;0.30;0.30;;;;;;;3.95;60.93;100500.13;5137609;28;20070;-80
2023/03/12 02:33:07;;;;;;;0.40;0.40;;;;;;;3.92;60.78;100500.16;5162675;28;20054;-81
2023/03/12 02:35:37;;;;;;;0.82;0.82;;;;;;;3.90;61.08;100497.53;5142054;28;20066;-80
2023/03/12 02:38:50;;;;;;;0.40;0.40;;;;;;;3.97;61.18;100497.53;5128577;28;20558;-80
2023/03/12 02:41:23;;;;;;;1.33;1.25;;;;;;;3.94;61.42;100504.47;5110445;28;20050;-81
2023/03/12 02:44:02;;;;;;;0.30;0.30;;;;;;;3.81;60.93;100501.91;5111660;28;20046;-80
2023/03/12 02:46:44;;;;;;;0.50;0.50;;;;;;;3.90;61.65;100491.50;5151096;28;20414;-80
2023/03/12 02:49:17;;;;;;;0.47;0.47;;;;;;;3.91;61.26;100482.84;5144232;28;20019;-81
2023/03/12 02:51:48;;;;;;;0.55;0.55;;;;;;;3.94;61.87;100477.63;5163834;28;20073;-81
2023/03/12 02:54:20;;;;;;;0.55;0.55;;;;;;;3.96;61.65;100485.44;5148618;28;20051;-81
2023/03/12 02:56:51;;;;;;;0.82;0.82;;;;;;;3.96;62.10;100477.66;5149434;28;20727;-81
2023/03/12 02:59:24;;;;;;;0.35;0.35;;;;;;;3.94;61.85;100473.31;5165816;28;20034;-81
2023/03/12 03:01:57;;;;;;;0.40;0.40;;;;;;;3.94;61.64;100467.25;5139047;28;20034;-80
2023/03/12 03:04:29;;;;;;;1.05;1.05;;;;;;;3.98;62.18;100461.19;5142172;28;20058;-81
2023/03/12 03:07:00;;;;;;;0.88;0.88;;;;;;;3.94;62.04;100467.25;5145117;28;20502;-81
2023/03/12 03:09:30;;;;;;;0.35;0.35;;;;;;;3.98;62.35;100463.78;5128148;28;20103;-80
2023/03/12 03:12:01;;;;;;;8.52;2.53;;;;;;;3.94;62.36;100456.88;5145015;28;20096;-80
2023/03/12 03:14:31;;;;;;;0.40;0.40;;;;;;;3.99;62.23;100452.53;5121454;28;20841;-80
2023/03/12 03:17:02;;;;;;;0.88;0.88;;;;;;;4.06;62.15;100464.63;5147298;28;20787;-81
2023/03/12 03:19:32;;;;;;;0.30;0.30;;;;;;;3.98;62.51;100458.59;5129692;28;20030;-79
2023/03/12 03:22:03;;;;;;;0.70;0.70;;;;;;;4.05;62.15;100472.41;5148018;28;20022;-80
2023/03/12 03:24:35;;;;;;;1.42;1.42;;;;;;;3.98;62.29;100466.38;5126790;28;20044;-80
2023/03/12 03:27:05;;;;;;;0.40;0.40;;;;;;;4.01;61.72;100455.13;5129937;28;20089;-79
2023/03/12 03:29:35;;;;;;;0.43;0.43;;;;;;;4.03;62.15;100462.03;5125265;28;20035;-80
2023/03/12 03:32:06;;;;;;;1.65;1.55;;;;;;;3.61;61.40;100453.50;5145482;28;20026;-80
2023/03/12 03:34:37;;;;;;;0.80;0.80;;;;;;;3.86;62.02;100459.50;5126902;28;20129;-81
2023/03/12 03:37:08;;;;;;;0.60;0.60;;;;;;;3.96;62.08;100455.13;5151691;28;20953;-80
2023/03/12 03:39:39;;;;;;;1.30;1.25;;;;;;;4.00;62.01;100462.06;5123404;28;20944;-79
2023/03/12 03:42:09;;;;;;;0.95;0.95;;;;;;;4.03;62.07;100458.56;5126814;28;20038;-80
2023/03/12 03:44:40;;;;;;;0.70;0.70;;;;;;;4.04;61.80;100448.16;5162793;28;20030;-80
2023/03/12 03:47:10;;;;;;;0.30;0.30;;;;;;;4.08;61.86;100460.28;5163539;28;20057;-79
2023/03/12 03:49:41;;;;;;;0.40;0.40;;;;;;;4.08;62.05;100454.22;5172452;28;20058;-78
2023/03/12 03:52:11;;;;;;;0.30;0.30;;;;;;;4.04;62.12;100449.91;5154204;28;20031;-80
2023/03/12 03:54:41;;;;;;;0.30;0.30;;;;;;;3.72;62.00;100459.53;5155820;28;20793;-82
2023/03/12 03:57:12;;;;;;;0.85;0.85;;;;;;;3.88;62.26;100456.91;5135298;28;20113;-81
2023/03/12 03:59:43;;;;;;;1.02;1.00;;;;;;;3.95;62.33;100458.59;5143419;28;20054;-80
2023/03/12 04:02:13;;;;;;;0.85;0.85;;;;;;;3.96;62.10;100460.31;5140094;28;20035;-80
2023/03/12 04:04:44;;;;;;;0.43;0.43;;;;;;;4.01;61.84;100458.56;5128664;28;20477;-82
2023/03/12 04:07:15;;;;;;;0.40;0.40;;;;;;;4.02;62.35;100464.63;5166244;28;20038;-80
2023/03/12 04:09:45;;;;;;;0.32;0.32;;;;;;;4.01;62.18;100453.38;5121775;28;20027;-82
2023/03/12 04:12:16;;;;;;;0.30;0.30;;;;;;;3.97;62.52;100446.47;5130836;28;20023;-81
2023/03/12 04:14:46;;;;;;;0.30;0.30;;;;;;;3.97;62.70;100446.47;5139352;28;20121;-81
2023/03/12 04:17:17;;;;;;;2.10;1.90;;;;;;;3.92;62.92;100449.09;5128169;28;20755;-81
2023/03/12 04:19:48;;;;;;;1.05;1.05;;;;;;;3.99;62.22;100455.13;5160352;28;20026;-81
2023/03/12 04:22:18;;;;;;;0.30;0.30;;;;;;;3.91;61.64;100449.09;5137247;28;20037;-80
2023/03/12 04:24:49;;;;;;;0.82;0.77;;;;;;;3.91;62.27;100446.50;5128183;28;20070;-79
2023/03/12 04:27:19;;;;;;;0.80;0.80;;;;;;;3.88;62.93;100446.50;5144048;28;20104;-80
2023/03/12 04:29:50;;;;;;;0.57;0.57;;;;;;;3.85;62.20;100443.91;5141848;28;20112;-81
2023/03/12 04:32:20;;;;;;;0.28;0.28;;;;;;;3.84;62.54;100444.81;5164955;28;20038;-79
2023/03/12 04:34:51;;;;;;;0.65;0.65;;;;;;;3.92;62.30;100437.84;5143030;28;20043;-81
2023/03/12 04:37:21;;;;;;;0.30;0.30;;;;;;;3.94;62.78;100434.38;5131208;28;20709;-80
2023/03/12 04:39:52;;;;;;;0.32;0.32;;;;;;;3.83;63.41;100433.53;5159261;28;20034;-80
2023/03/12 04:42:22;;;;;;;0.30;0.30;;;;;;;3.96;63.29;100429.16;5122284;28;20027;-80
2023/03/12 04:44:52;;;;;;;1.98;1.05;;;;;;;3.97;63.21;100430.06;5158871;28;20046;-80
2023/03/12 04:47:23;;;;;;;0.30;0.30;;;;;;;3.98;63.24;100427.44;5159950;28;20121;-80
2023/03/12 04:49:53;;;;;;;0.38;0.38;;;;;;;3.94;63.41;100420.53;5132195;28;20133;-80
2023/03/12 04:52:25;;;;;;;0.30;0.30;;;;;;;3.87;64.18;100417.09;5139879;28;20074;-82
2023/03/12 04:54:58;;;;;;;0.30;0.30;;;;;;;3.94;63.36;100407.53;5156158;28;20046;-81
2023/03/12 04:57:28;;;;;;;0.50;0.50;;;;;;;4.04;63.21;100404.03;5157983;28;20038;-80
2023/03/12 04:59:59;;;;;;;0.30;0.30;;;;;;;4.02;63.72;100395.38;5145435;28;20093;-80
2023/03/12 05:02:29;;;;;;;0.30;0.30;;;;;;;3.91;64.61;100394.59;5157587;28;20042;-81
2023/03/12 05:05:00;;;;;;;0.25;0.25;;;;;;;4.00;63.92;100378.97;5122258;28;20043;-82
2023/03/12 05:07:30;;;;;;;4.47;1.58;;;;;;;4.02;64.44;100381.56;5158602;28;20023;-82
2023/03/12 05:10:00;;;;;;;0.30;0.30;;;;;;;3.87;65.25;100372.09;5140081;28;20592;-79
2023/03/12 05:12:31;;;;;;;0.30;0.30;;;;;;;4.04;64.90;100385.88;5143280;28;20035;-83
2023/03/12 05:15:02;;;;;;;0.40;0.40;;;;;;;3.94;65.98;100378.97;5140779;28;20046;-82
2023/03/12 05:17:32;;;;;;;0.60;0.60;;;;;;;3.97;65.59;100367.75;5144016;28;20038;-80
2023/03/12 05:20:06;;;;;;;0.30;0.30;;;;;;;3.92;66.54;100362.59;5146322;28;20049;-82
2023/03/12 05:22:37;;;;;;;0.50;0.50;;;;;;;3.81;67.92;100356.56;5124037;28;20670;-81
2023/03/12 05:25:08;;;;;;;0.38;0.38;;;;;;;3.82;68.73;100364.34;5146284;28;20108;-81
2023/03/12 05:27:38;;;;;;;0.30;0.30;;;;;;;3.88;67.68;100359.13;5130964;28;20042;-82
2023/03/12 05:30:10;;;;;;;0.30;0.30;;;;;;;3.87;68.37;100383.38;5139577;28;20288;-81
2023/03/12 05:32:40;;;;;;;0.30;0.30;;;;;;;3.97;68.02;100373.78;5141865;28;20149;-81
2023/03/12 05:35:10;;;;;;;0.73;0.73;;;;;;;3.96;67.59;100377.25;5124419;28;20111;-81
2023/03/12 05:37:41;;;;;;;0.40;0.40;;;;;;;3.71;70.07;100368.75;5156965;28;20050;-81
2023/03/12 05:40:12;;;;;;;0.40;0.40;;;;;;;3.71;71.42;100355.75;5122897;28;20105;-81
2023/03/12 05:42:43;;;;;;;0.30;0.30;;;;;;;3.84;70.78;100351.38;5138584;28;20504;-81
2023/03/12 05:45:13;;;;;;;0.30;0.30;;;;;;;3.87;71.23;100360.00;5141523;28;20058;-81
2023/03/12 05:47:44;;;;;;;0.40;0.40;;;;;;;3.99;68.04;100356.47;5158753;28;20065;-81
2023/03/12 05:50:15;;;;;;;0.57;0.57;;;;;;;3.97;70.02;100350.44;5127324;28;20039;-80
2023/03/12 05:52:46;;;;;;;1.65;0.77;;;;;;;3.99;69.57;100335.72;5181798;28;20033;-81
2023/03/12 05:55:17;;;;;;;0.45;0.45;;;;;;;4.07;68.65;100333.94;5138880;28;20067;-79
2023/03/12 05:57:47;;;;;;;0.35;0.35;;;;;;;4.12;68.21;100325.22;5158487;28;20073;-81
2023/03/12 06:00:18;;;;;;;0.40;0.40;;;;;;;4.13;68.29;100326.97;5122138;28;20121;-79
2023/03/12 06:02:49;;;;;;;0.98;0.98;;;;;;;4.11;68.55;100329.56;5128905;28;20571;-79
2023/03/12 06:05:20;;;;;;;4.35;2.58;;;;;;;4.21;67.65;100325.16;5142038;28;20065;-80
2023/03/12 06:07:50;;;;;;;0.40;0.40;;;;;;;4.06;68.77;100316.63;5129381;28;20054;-81
2023/03/12 06:10:20;;;;;;;0.50;0.50;;;;;;;4.04;69.23;100318.34;5140678;28;20046;-79
2023/03/12 06:12:51;;;;;;;0.52;0.52;;;;;;;3.89;71.87;100321.06;5133054;28;20050;-78
2023/03/12 06:15:24;;;;;;;0.40;0.40;;;;;;;3.99;70.14;100314.06;5158915;28;20039;-80
2023/03/12 06:17:54;;;;;;;0.40;0.40;;;;;;;4.06;70.68;100314.03;5128583;28;20034;-80
2023/03/12 06:20:25;;;;;;;0.40;0.40;;;;;;;4.06;70.35;100311.44;5143274;28;20039;-79
2023/03/12 06:22:55;;;;;;;0.40;0.40;;;;;;;4.04;70.30;100305.38;5147622;28;20023;-79
2023/03/12 06:25:26;;;;;;;0.30;0.30;;;;;;;4.05;69.39;100304.50;5125750;28;20066;-79
2023/03/12 06:27:56;;;;;;;0.45;0.45;;;;;;;4.09;69.43;100311.38;5131125;28;20050;-79
2023/03/12 06:30:27;;;;;;;0.75;0.75;;;;;;;4.09;69.47;100306.19;5139430;28;20043;-80
2023/03/12 06:32:57;;;;;;;0.30;0.30;;;;;;;4.16;68.74;100314.81;5137843;28;20042;-77
2023/03/12 06:35:28;;;;;;;0.30;0.30;;;;;;;4.14;69.55;100307.91;5125964;28;20042;-76
2023/03/12 06:37:58;;;;;;;0.50;0.50;;;;;;;4.21;68.38;100309.59;5164771;28;20045;-77
2023/03/12 06:40:29;;;;;;;0.30;0.30;;;;;;;4.20;68.02;100302.66;5151999;28;20077;-77
2023/03/12 06:42:59;;;;;;;0.70;0.70;;;;;;;4.17;69.11;100318.28;5135671;28;20047;-77
2023/03/12 06:45:30;;;;;;;0.30;0.30;;;;;;;4.24;68.68;100322.56;5151364;28;20576;-80
2023/03/12 06:48:00;;;;;;;0.30;0.30;;;;;;;4.23;68.67;100320.84;5143912;28;20030;-81
2023/03/12 06:50:33;;;;;;;0.95;0.95;;;;;;;4.14;69.14;100315.69;5140156;28;20545;-83
2023/03/12 06:53:03;;;;;;;0.40;0.40;;;;;;;4.22;68.74;100322.56;5143462;28;20117;-80
2023/03/12 06:55:33;;;;;;;0.47;0.47;;;;;;;4.02;69.51;100329.63;5142253;28;20441;-82
2023/03/12 06:58:04;;;;;;;0.55;0.55;;;;;;;4.15;69.08;100317.44;5138602;28;20073;-81
2023/03/12 07:00:35;;;;;;;0.70;0.70;;;;;;;4.05;70.05;100320.09;5124919;28;20062;-82
2023/03/12 07:03:06;;;;;;;0.55;0.55;;;;;;;4.12;69.71;100315.72;5122111;28;20802;-80
2023/03/12 07:05:36;;;;;;;0.30;0.30;;;;;;;4.17;68.95;100308.75;5129865;28;20106;-80
2023/03/12 07:08:07;;;;;;;1.50;1.40;;;;;;;4.17;68.77;100310.50;5148102;28;20368;-81
2023/03/12 07:10:37;;;;;;;0.30;0.30;;;;;;;4.20;69.05;100315.66;5164885;28;20051;-80
2023/03/12 07:13:08;;;;;;;0.30;0.30;;;;;;;4.28;68.67;100313.00;5164737;28;20035;-81
2023/03/12 07:15:39;;;;;;;0.20;0.20;;;;;;;4.27;68.42;100313.88;5157351;28;20035;-81
2023/03/12 07:18:10;;;;;;;0.32;0.32;;;;;;;4.27;68.68;100314.72;5171818;28;20037;-81
2023/03/12 07:20:42;;;;;;;2.38;1.42;;;;;;;4.30;68.73;100311.28;5169890;28;20201;-81
2023/03/12 07:23:13;;;;;;;3.42;1.33;;;;;;;4.28;68.75;100318.22;5162800;28;20019;-81
2023/03/12 07:25:44;;;;;;;0.85;0.80;;;;;;;4.31;68.99;100315.56;5131485;28;20100;-81
2023/03/12 07:28:15;;;;;;;0.57;0.57;;;;;;;4.26;69.38;100307.81;5147435;28;20047;-82
2023/03/12 07:30:49;;;;;;;0.82;0.82;;;;;;;4.27;69.17;100308.69;5125746;28;20694;-83
2023/03/12 07:33:20;;;;;;;1.65;1.55;;;;;;;4.39;69.09;100301.66;5130330;28;20038;-80
2023/03/12 07:35:50;;;;;;;0.40;0.40;;;;;;;4.33;69.21;100303.44;5158737;28;20125;-81
2023/03/12 07:38:21;;;;;;;0.30;0.30;;;;;;;4.22;70.01;100300.94;5136708;28;20094;-80
2023/03/12 07:40:53;;;;;;;1.17;1.08;;;;;;;4.20;70.78;100300.94;5146581;28;20038;-80
2023/03/12 07:43:24;;;;;;;0.52;0.52;;;;;;;4.36;70.14;100308.63;5146223;28;20030;-80
2023/03/12 07:45:55;;;;;;;0.38;0.38;;;;;;;4.33;70.52;100309.50;5142978;28;20089;-80
2023/03/12 07:48:25;;;;;;;0.50;0.50;;;;;;;4.36;70.62;100309.47;5162610;28;20026;-80
2023/03/12 07:50:56;;;;;;;1.30;1.30;;;;;;;4.38;70.79;100302.53;5131398;28;20101;-80
2023/03/12 07:53:26;;;;;;;0.40;0.40;;;;;;;4.40;70.65;100308.59;5143190;28;20053;-80
2023/03/12 07:55:57;;;;;;;0.40;0.40;;;;;;;4.45;70.46;100313.75;5123388;28;20046;-80
2023/03/12 07:58:27;;;;;;;0.40;0.40;;;;;;;4.40;71.38;100318.97;5143083;28;20023;-81
2023/03/12 08:00:58;;;;;;;0.50;0.50;;;;;;;4.53;70.83;100313.66;5130416;28;20474;-81
2023/03/12 08:03:29;;;;;;;0.60;0.60;;;;;;;4.56;70.59;100311.88;5144866;28;20037;-80
2023/03/12 08:06:02;;;;;;;0.30;0.30;;;;;;;4.50;72.38;100311.09;5130815;28;20046;-80
2023/03/12 08:08:34;;;;;;;0.30;0.30;;;;;;;4.58;71.97;100309.31;5141653;28;20383;-81
2023/03/12 08:11:05;;;;;;;0.65;0.65;;;;;;;4.59;72.35;100312.75;5127714;28;20157;-81
2023/03/12 08:13:35;;;;;;;0.30;0.30;;;;;;;4.65;71.66;100308.38;5159563;28;20113;-81
2023/03/12 08:16:06;;;;;;;0.57;0.57;;;;;;;4.69;72.89;100312.63;5124459;28;20601;-81
2023/03/12 08:18:36;;;;;;;0.63;0.63;;;;;;;4.79;71.73;100317.75;5149216;28;20452;-82
2023/03/12 08:21:07;;;;;;;0.30;0.30;;;;;;;4.71;73.44;100315.25;5144583;28;20054;-81
2023/03/12 08:23:37;;;;;;;0.73;0.73;;;;;;;4.78;73.63;100316.91;5126002;28;20086;-83
2023/03/12 08:26:08;;;;;;;0.45;0.45;;;;;;;4.75;74.52;100306.53;5128052;28;20109;-81
2023/03/12 08:28:38;;;;;;;0.88;0.88;;;;;;;4.82;75.98;100312.53;5128543;28;20027;-82
2023/03/12 08:31:09;;;;;;;0.55;0.55;;;;;;;4.91;72.72;100306.38;5157654;28;20050;-81
2023/03/12 08:33:42;;;;;;;0.40;0.40;;;;;;;4.94;74.15;100308.94;5143443;28;20019;-80
2023/03/12 08:36:12;;;;;;;0.30;0.30;;;;;;;4.89;75.43;100303.78;5160625;28;20153;-80
2023/03/12 08:38:43;;;;;;;0.50;0.50;;;;;;;4.91;75.25;100299.44;5174617;28;20522;-79
2023/03/12 08:41:13;;;;;;;0.43;0.43;;;;;;;4.92;75.66;100303.75;5143622;28;20038;-81
2023/03/12 08:43:44;;;;;;;1.38;1.25;;;;;;;4.97;76.66;100288.97;5145187;28;20037;-81
2023/03/12 08:46:14;;;;;;;0.40;0.40;;;;;;;5.13;73.39;100288.81;5128038;28;20473;-80
2023/03/12 08:48:45;;;;;;;0.40;0.40;;;;;;;5.13;75.67;100289.66;5145099;28;20696;-81
2023/03/12 08:51:15;;;;;;;4.95;1.23;;;;;;;5.16;74.12;100287.03;5123149;28;20057;-80
2023/03/12 08:53:46;;;;;;;0.55;0.55;;;;;;;5.12;77.14;100290.56;5144064;28;20035;-79
2023/03/12 08:56:17;;;;;;;0.30;0.30;;;;;;;5.24;74.38;100299.06;5155694;28;20042;-80
2023/03/12 08:58:47;;;;;;;0.30;0.30;;;;;;;5.26;74.03;100295.56;5143599;28;20026;-80
2023/03/12 09:01:18;;;;;;;0.30;0.30;;;;;;;5.24;74.88;100289.56;5142347;28;20070;-79
2023/03/12 09:03:49;;;;;;;0.40;0.40;;;;;;;5.26;75.57;100295.56;5167964;28;20030;-80
2023/03/12 09:06:20;;;;;;;0.50;0.50;;;;;;;5.16;78.91;100300.03;5147427;28;20452;-80
2023/03/12 09:08:50;;;;;;;0.40;0.40;;;;;;;5.24;76.81;100304.28;5160971;28;20034;-80
2023/03/12 09:11:21;;;;;;;0.30;0.30;;;;;;;5.28;77.25;100299.03;5158155;28;20047;-81
2023/03/12 09:13:51;;;;;;;0.43;0.43;;;;;;;5.30;77.92;100299.00;5155267;28;20031;-81
2023/03/12 09:16:22;;;;;;;1.17;0.85;;;;;;;5.33;76.22;100302.41;5122223;28;20090;-82
2023/03/12 09:18:53;;;;;;;0.30;0.30;;;;;;;5.33;77.63;100298.97;5127756;28;20109;-82
2023/03/12 09:21:23;;;;;;;0.65;0.65;;;;;;;5.42;78.13;100305.78;5135499;28;20139;-80
2023/03/12 09:23:54;;;;;;;0.60;0.60;;;;;;;5.42;78.69;100301.47;5140814;28;20035;-81
2023/03/12 09:26:24;;;;;;;0.95;0.95;;;;;;;5.42;78.30;100304.06;5140915;28;20043;-79
2023/03/12 09:28:56;;;;;;;0.30;0.30;;;;;;;5.44;78.83;100298.81;5144205;28;20042;-80
2023/03/12 09:31:27;;;;;;;1.95;1.35;;;;;;;5.45;78.44;100295.34;5141291;28;20042;-81
2023/03/12 09:33:57;;;;;;;0.40;0.40;;;;;;;5.55;76.61;100304.78;5141412;28;20026;-81
2023/03/12 09:36:28;;;;;;;0.40;0.40;;;;;;;5.49;79.29;100304.84;5136141;28;20073;-82
2023/03/12 09:38:59;;;;;;;0.43;0.43;;;;;;;5.53;79.00;100297.88;5131357;28;20057;-81
2023/03/12 09:41:34;;;;;;;0.50;0.50;;;;;;;5.48;82.54;100309.19;5146255;28;20164;-81
2023/03/12 09:44:04;;;;;;;0.40;0.40;;;;;;;5.49;80.55;100303.09;5143498;28;20114;-81
2023/03/12 09:46:52;;;;;;;0.30;0.30;;;;;;;5.53;81.90;100306.53;5145772;28;20119;-81
2023/03/12 09:49:42;;;;;;;0.85;0.85;;;;;;;5.61;80.46;100301.22;5145705;28;20153;-81
2023/03/12 09:52:26;;;;;;;0.50;0.50;;;;;;;5.62;81.94;100306.41;5145429;28;20039;-81
2023/03/12 09:55:11;;;;;;;0.30;0.30;;;;;;;5.67;78.72;100294.19;5143512;28;20060;-81
2023/03/12 09:57:48;;;;;;;0.77;0.77;;;;;;;5.63;82.36;100295.13;5143531;28;20037;-83
2023/03/12 10:00:20;;;;;;;0.45;0.45;;;;;;;5.70;81.82;100295.03;5132695;28;20035;-83
2023/03/12 10:03:15;;;;;;;0.50;0.50;;;;;;;5.74;82.48;100302.78;5164427;28;20328;-80
2023/03/12 10:06:08;;;;;;;0.30;0.30;;;;;;;5.68;85.79;100301.09;5134177;28;20065;-80
2023/03/12 10:08:57;;;;;;;1.08;1.05;;;;;;;5.78;84.63;100296.66;5137286;28;20497;-79
2023/03/12 10:11:35;;;;;;;0.65;0.65;;;;;;;5.79;85.67;100302.72;5147402;28;20094;-82
2023/03/12 10:14:29;;;;;;;0.30;0.30;;;;;;;5.81;83.11;100296.59;5147178;28;20038;-81
2023/03/12 10:17:05;;;;;;;0.82;0.82;;;;;;;5.85;86.23;100305.22;5145441;28;20074;-81
2023/03/12 10:19:38;;;;;;;0.30;0.30;;;;;;;5.88;87.12;100310.41;5127976;28;20145;-83
2023/03/12 10:22:14;;;;;;;0.47;0.47;;;;;;;5.87;89.50;100306.06;5148603;28;20038;-82
2023/03/12 10:24:59;;;;;;;0.30;0.30;;;;;;;5.99;92.25;100307.66;5139929;28;20062;-83
2023/03/12 10:27:35;;;;;;;1.08;0.88;;;;;;;6.11;95.38;100310.09;5154145;28;20042;-82
2023/03/12 10:30:18;;;;;;;0.30;0.30;;;;;;;6.21;96.06;100308.19;5129244;28;20791;-80
2023/03/12 10:33:03;;;;;;;0.40;0.40;;;;;;;6.34;96.40;100297.56;5149017;28;20042;-81
2023/03/12 10:35:33;;;;;;;0.40;0.40;;;;;;;6.46;97.92;100311.25;5143580;28;20042;-80
2023/03/12 10:38:12;;;;;;;0.65;0.65;;;;;;;6.50;97.96;100312.06;5132966;28;20038;-82
2023/03/12 10:40:43;;;;;;;0.30;0.30;;;;;;;6.64;98.90;100313.59;5131112;28;20041;-80
2023/03/12 10:43:13;;;;;;;0.55;0.55;;;;;;;6.69;99.24;100319.56;5135271;28;20068;-80
2023/03/12 10:46:01;;;;;;;0.85;0.85;;;;;;;6.74;99.58;100316.00;5137697;28;20122;-80
2023/03/12 10:48:31;;;;;;;0.63;0.63;;;;;;;6.82;99.43;100318.47;5144999;28;20149;-79
2023/03/12 10:51:11;;;;;;;0.30;0.30;;;;;;;6.90;99.90;100319.19;5147256;28;20130;-79
2023/03/12 10:53:49;;;;;;;0.40;0.40;;;;;;;6.92;100.00;100320.03;5138345;28;20030;-78
2023/03/12 10:56:20;;;;;;;0.35;0.35;;;;;;;6.98;100.00;100323.41;5126003;28;20058;-78
2023/03/12 10:58:52;;;;;;;0.45;0.45;;;;;;;7.02;100.00;100327.69;5131125;28;20084;-79
2023/03/12 11:01:25;;;;;;;0.57;0.57;;;;;;;7.08;100.00;100322.34;5151121;28;20036;-79
2023/03/12 11:04:15;;;;;;;;;;;;;;;7.10;100.00;100312.75;5182796;28;20030;-79
2023/03/12 11:07:04;;;;;;;2.28;0.90;;;;;;;7.19;100.00;100320.38;5147426;28;19922;-79
2023/03/12 11:09:34;;;;;;;0.38;0.38;;;;;;;7.21;100.00;100329.06;5164605;28;20035;-77
2023/03/12 11:12:29;;;;;;;0.40;0.40;;;;;;;7.33;100.00;100324.47;5155287;28;20130;-78
2023/03/12 11:15:20;;;;;;;0.52;0.52;;;;;;;7.37;100.00;100326.13;5135534;28;20429;-78
2023/03/12 11:17:51;;;;;;;2.47;0.95;;;;;;;7.38;100.00;100322.66;5142732;28;20085;-79
2023/03/12 11:20:31;;;;;;;0.38;0.38;;;;;;;7.45;100.00;100318.13;5163770;28;20505;-79
2023/03/12 11:23:19;;;;;;;1.88;1.77;;;;;;;7.49;100.00;100312.81;5128162;28;20038;-80
2023/03/12 11:25:55;;;;;;;0.47;0.47;;;;;;;7.56;100.00;100311.78;5132426;28;20477;-79
2023/03/12 11:28:38;;;;;;;0.20;0.20;;;;;;;7.64;100.00;100313.41;5143780;28;20417;-79
2023/03/12 11:31:18;;;;;;;2.10;1.98;;;;;;;7.70;100.00;100311.50;5135902;28;20042;-83
2023/03/12 11:33:51;;;;;;;6.15;3.35;;;;;;;7.75;100.00;100311.41;5130478;28;20819;-80
2023/03/12 11:36:41;;;;;;;0.52;0.52;;;;;;;7.82;100.00;100317.38;5126406;28;20065;-84
2023/03/12 11:39:29;;;;;;;1.13;1.08;;;;;;;7.91;100.00;100316.28;5146012;28;20026;-81
2023/03/12 11:42:03;;;;;;;1.70;1.60;;;;;;;7.91;100.00;100311.94;5154662;28;20047;-80
2023/03/12 11:44:52;;;;;;;0.90;0.90;;;;;;;8.00;100.00;100310.84;5140349;28;20058;-80
2023/03/12 11:47:54;;;;;;;1.20;1.17;;;;;;;8.08;100.00;100310.69;5149707;28;20099;-79
2023/03/12 11:50:36;;;;;;;0.50;0.50;;;;;;;8.14;100.00;100308.78;5166060;28;20065;-81
2023/03/12 11:53:20;;;;;;;0.47;0.47;;;;;;;8.21;100.00;100324.34;5168018;28;20042;-80
2023/03/12 11:55:55;;;;;;;3.03;2.78;;;;;;;8.26;100.00;100323.34;5172186;28;20022;-82
2023/03/12 11:58:58;;;;;;;0.68;0.68;;;;;;;8.30;100.00;100317.13;5173052;28;20015;-81